Time;durP1;ratioP1;P1;durP2;ratioP2;P2;SDS_P1;SDS_P2;PMS_P1;PMS_P2;Temp;Humidity;BMP_temperature;BMP_pressure;BME280_temperature;BME280_humidity;BME280_pressure;Samples;Min_cycle;Max_cycle;Signal;HPM_P1;HPM_P2
2023/02/09 00:02:12;;;;;;;21.08;9.65;;;;;;;-9.27;65.16;100246.44;4788047;30;20090;-78
2023/02/09 00:04:38;;;;;;;17.45;9.13;;;;;;;-9.27;65.55;100241.25;4774326;30;20399;-78
2023/02/09 00:07:04;;;;;;;20.70;9.43;;;;;;;-9.28;65.91;100249.00;4803378;29;20054;-78
2023/02/09 00:09:30;;;;;;;18.58;9.13;;;;;;;-9.33;66.00;100241.16;4803284;29;20051;-78
2023/02/09 00:14:40;;;;;;;20.92;9.43;;;;;;;-9.44;66.21;100248.78;4773409;30;20096;-78
2023/02/09 00:17:07;;;;;;;19.02;9.85;;;;;;;-9.38;65.99;100248.84;4758246;30;20573;-78
2023/02/09 00:19:33;;;;;;;17.08;8.73;;;;;;;-9.46;66.52;100252.19;4787825;30;20043;-78
2023/02/09 00:21:59;;;;;;;25.85;10.15;;;;;;;-9.40;66.22;100257.44;4788955;30;20054;-78
2023/02/09 00:24:25;;;;;;;23.65;10.32;;;;;;;-9.28;65.96;100249.88;4788126;30;20047;-78
2023/02/09 00:26:51;;;;;;;26.40;9.93;;;;;;;-9.19;66.28;100251.72;4787664;30;20054;-79
2023/02/09 00:29:22;;;;;;;21.35;9.52;;;;;;;-9.15;66.26;100251.78;4772878;30;20054;-79
2023/02/09 00:31:50;;;;;;;20.48;9.10;;;;;;;-9.07;65.87;100237.19;4773108;30;20513;-79
2023/02/09 00:34:16;;;;;;;19.15;9.90;;;;;;;-9.02;65.63;100239.00;4788720;30;20051;-78
2023/02/09 00:36:41;;;;;;;23.15;10.18;;;;;;;-9.05;65.66;100245.88;4787736;30;20397;-80
2023/02/09 00:39:07;;;;;;;18.20;8.90;;;;;;;-9.09;65.38;100249.28;4802580;29;20050;-79
2023/02/09 00:44:18;;;;;;;25.75;10.90;;;;;;;-9.17;65.95;100245.72;4788209;30;20125;-78
2023/02/09 00:46:44;;;;;;;22.15;10.40;;;;;;;-9.02;65.60;100254.56;4772530;30;20471;-79
2023/02/09 00:49:10;;;;;;;23.70;10.52;;;;;;;-9.08;65.06;100258.78;4802399;29;20138;-77
2023/02/09 00:51:36;;;;;;;19.13;7.93;;;;;;;-9.24;65.38;100258.56;4787069;30;20051;-78
2023/02/09 00:54:02;;;;;;;25.13;10.23;;;;;;;-9.31;65.96;100262.78;4772393;30;20047;-78
2023/02/09 00:56:28;;;;;;;23.48;10.15;;;;;;;-9.18;65.75;100254.31;4787324;30;20582;-78
2023/02/09 00:58:54;;;;;;;22.95;10.00;;;;;;;-9.16;65.76;100263.00;4787229;30;20142;-78
2023/02/09 01:01:20;;;;;;;15.75;7.47;;;;;;;-9.25;66.14;100268.06;4787761;29;20054;-78
2023/02/09 01:03:46;;;;;;;21.23;9.90;;;;;;;-9.39;66.00;100254.03;4787279;30;20071;-78
2023/02/09 01:06:12;;;;;;;18.10;8.82;;;;;;;-9.34;66.01;100267.91;4786992;30;20475;-78
2023/02/09 01:08:38;;;;;;;24.60;10.75;;;;;;;-9.32;66.18;100256.72;4788226;29;20105;-80
2023/02/09 01:11:09;;;;;;;19.55;9.73;;;;;;;-9.33;66.21;100248.91;4802382;29;20059;-78
2023/02/09 01:13:35;;;;;;;23.55;10.00;;;;;;;-9.15;65.99;100263.84;4772535;30;20047;-79
2023/02/09 01:16:05;;;;;;;35.45;10.45;;;;;;;-9.08;65.84;100263.97;4806375;29;20063;-79
2023/02/09 01:18:31;;;;;;;27.50;9.82;;;;;;;-9.21;65.94;100254.28;4787244;30;20047;-78
2023/02/09 01:20:57;;;;;;;15.70;8.77;;;;;;;-9.17;65.82;100260.38;4786740;30;20051;-79
2023/02/09 01:23:23;;;;;;;22.95;9.73;;;;;;;-9.11;66.14;100253.56;4786934;30;20043;-78
2023/02/09 01:25:49;;;;;;;21.23;10.50;;;;;;;-9.01;66.07;100253.69;4786936;30;20130;-78
2023/02/09 01:28:14;;;;;;;21.27;9.85;;;;;;;-9.02;66.24;100237.28;4786748;30;20071;-78
2023/02/09 01:30:40;;;;;;;21.15;9.60;;;;;;;-8.90;66.08;100246.94;4772169;30;20074;-79
2023/02/09 01:33:06;;;;;;;17.63;8.90;;;;;;;-8.99;65.98;100226.06;4787842;29;20075;-78
2023/02/09 01:35:31;;;;;;;23.25;10.57;;;;;;;-9.18;66.15;100214.59;4786686;30;20484;-79
2023/02/09 01:37:57;;;;;;;21.88;9.80;;;;;;;-9.00;65.67;100232.13;4786628;30;20134;-79
2023/02/09 01:40:23;;;;;;;24.55;10.68;;;;;;;-8.97;65.75;100234.75;4771910;30;20085;-79
2023/02/09 01:42:49;;;;;;;25.23;9.52;;;;;;;-8.88;65.66;100232.25;4771875;30;20054;-78
2023/02/09 01:45:36;;;;;;;22.52;9.70;;;;;;;-8.87;65.59;100228.84;4786759;30;20384;-80
2023/02/09 01:48:03;;;;;;;27.33;10.70;;;;;;;-8.96;65.39;100239.06;4787787;30;20499;-78
2023/02/09 01:50:34;;;;;;;25.27;10.82;;;;;;;-8.94;65.55;100234.78;4801447;29;20055;-79
2023/02/09 01:53:02;;;;;;;22.90;9.90;;;;;;;-8.96;65.62;100233.88;4786651;30;20104;-79
2023/02/09 01:55:31;;;;;;;24.20;11.57;;;;;;;-8.97;65.57;100230.44;4786406;30;20043;-79
2023/02/09 01:58:02;;;;;;;24.10;10.70;;;;;;;-8.90;65.53;100228.78;4786713;30;20083;-80
2023/02/09 02:00:29;;;;;;;27.10;10.55;;;;;;;-8.84;65.56;100234.03;4786530;30;20091;-78
2023/02/09 02:03:04;;;;;;;21.77;10.77;;;;;;;-8.77;65.65;100240.16;4801540;29;20059;-80
2023/02/09 02:05:35;;;;;;;22.30;10.95;;;;;;;-8.81;65.43;100234.06;4787925;29;20069;-78
2023/02/09 02:08:04;;;;;;;24.80;11.38;;;;;;;-8.76;65.14;100222.06;4786248;30;20039;-79
2023/02/09 02:10:31;;;;;;;24.08;10.00;;;;;;;-8.80;65.28;100228.03;4771917;30;20058;-78
2023/02/09 02:12:57;;;;;;;24.08;10.75;;;;;;;-8.84;65.00;100224.56;4790057;29;20057;-79
2023/02/09 02:15:29;;;;;;;24.05;10.57;;;;;;;-8.89;65.07;100231.41;4789506;30;20055;-78
2023/02/09 02:18:02;;;;;;;20.05;9.60;;;;;;;-8.89;65.04;100230.53;4789619;30;20142;-78
2023/02/09 02:20:51;;;;;;;26.02;11.30;;;;;;;-8.87;65.13;100234.88;4790200;30;20043;-78
2023/02/09 02:23:43;;;;;;;21.95;10.43;;;;;;;-8.87;65.16;100244.38;4760057;30;20073;-79
2023/02/09 02:26:50;;;;;;;18.65;9.48;;;;;;;-8.80;65.27;100235.81;4760113;30;20079;-78
2023/02/09 02:30:05;;;;;;;19.42;9.00;;;;;;;-8.74;64.93;100240.22;4789537;29;20082;-78
2023/02/09 02:32:39;;;;;;;21.05;9.30;;;;;;;-8.92;65.04;100239.13;4741870;30;20056;-79
2023/02/09 02:35:40;;;;;;;28.33;11.25;;;;;;;-8.89;64.95;100259.91;4790510;30;20067;-79
2023/02/09 02:38:18;;;;;;;21.17;9.90;;;;;;;-8.97;65.22;100248.56;4789540;30;20503;-79
2023/02/09 02:41:07;;;;;;;21.08;10.60;;;;;;;-8.93;65.04;100257.25;4789873;30;20055;-79
2023/02/09 02:43:53;;;;;;;22.55;10.75;;;;;;;-9.01;64.82;100264.06;4774716;30;20114;-79
2023/02/09 02:46:30;;;;;;;23.85;10.63;;;;;;;-9.01;65.33;100251.09;4775332;30;20055;-80
2023/02/09 02:48:58;;;;;;;23.17;10.77;;;;;;;-9.00;65.31;100252.84;4760221;30;20051;-79
2023/02/09 02:51:32;;;;;;;21.13;11.02;;;;;;;-8.99;65.31;100260.63;4804442;29;20470;-78
2023/02/09 02:54:07;;;;;;;22.85;10.95;;;;;;;-8.98;65.10;100258.91;4790665;30;20063;-79
2023/02/09 02:56:53;;;;;;;22.35;10.63;;;;;;;-8.99;64.96;100259.75;4803299;29;20055;-78
2023/02/09 02:59:29;;;;;;;23.40;10.50;;;;;;;-9.02;65.34;100254.56;4774024;30;20055;-77
2023/02/09 03:01:59;;;;;;;24.10;10.80;;;;;;;-8.96;65.18;100254.63;4790506;29;20055;-78
2023/02/09 03:04:27;;;;;;;16.65;8.43;;;;;;;-9.25;65.71;100275.81;4804182;29;20083;-77
2023/02/09 03:06:53;;;;;;;26.15;10.02;;;;;;;-9.42;66.17;100256.56;4785530;30;20047;-81
2023/02/09 03:09:19;;;;;;;21.90;10.32;;;;;;;-9.41;65.76;100245.34;4789040;30;20043;-81
2023/02/09 03:11:48;;;;;;;24.33;10.93;;;;;;;-9.20;65.86;100261.22;4790312;30;20478;-79
2023/02/09 03:14:36;;;;;;;25.38;10.50;;;;;;;-9.20;66.34;100265.53;4804146;29;20099;-78
2023/02/09 03:17:29;;;;;;;20.95;9.82;;;;;;;-9.38;66.90;100279.06;4788938;30;20064;-78
2023/02/09 03:20:37;;;;;;;17.17;7.80;;;;;;;-9.52;66.94;100277.97;4773988;30;20416;-80
2023/02/09 03:23:06;;;;;;;11.45;5.93;;;;;;;-9.65;67.95;100288.13;4788639;29;20058;-79
2023/02/09 03:25:44;;;;;;;23.42;10.70;;;;;;;-9.65;67.88;100295.03;4803609;29;20518;-78
2023/02/09 03:28:18;;;;;;;27.60;10.82;;;;;;;-9.60;67.63;100307.19;4773756;30;20533;-78
2023/02/09 03:30:48;;;;;;;33.83;10.68;;;;;;;-9.52;67.50;100335.78;4774363;30;20062;-77
2023/02/09 03:33:27;;;;;;;29.60;13.57;;;;;;;-9.40;67.47;100343.75;4773376;30;20151;-79
2023/02/09 03:35:59;;;;;;;35.35;13.32;;;;;;;-9.31;67.76;100361.16;4788414;30;20422;-78
2023/02/09 03:38:26;;;;;;;28.20;11.65;;;;;;;-9.27;67.42;100362.94;4788436;30;20043;-80
2023/02/09 03:40:53;;;;;;;24.50;11.27;;;;;;;-9.31;67.61;100372.38;4803848;29;20615;-77
2023/02/09 03:43:19;;;;;;;19.55;9.52;;;;;;;-9.21;67.63;100373.41;4788251;30;20059;-77
2023/02/09 03:45:45;;;;;;;21.77;10.38;;;;;;;-9.22;67.42;100375.97;4787704;30;20585;-78
2023/02/09 03:48:13;;;;;;;22.45;10.20;;;;;;;-9.18;67.31;100377.75;4803163;29;20423;-81
2023/02/09 03:50:39;;;;;;;24.27;10.80;;;;;;;-9.20;67.63;100369.97;4788110;30;20051;-79
2023/02/09 03:53:05;;;;;;;28.88;11.57;;;;;;;-9.03;67.48;100372.81;4789362;29;20296;-80
2023/02/09 03:55:32;;;;;;;27.33;11.23;;;;;;;-8.90;67.30;100366.09;4789981;29;20051;-80
2023/02/09 03:57:58;;;;;;;22.25;11.45;;;;;;;-8.85;67.05;100382.59;4803445;29;20508;-78
2023/02/09 04:00:24;;;;;;;23.05;11.55;;;;;;;-8.84;66.61;100373.94;4803179;29;20138;-80
2023/02/09 04:02:50;;;;;;;22.73;10.45;;;;;;;-8.74;66.81;100346.47;4787921;30;20555;-79
2023/02/09 04:05:16;;;;;;;26.25;12.05;;;;;;;-8.65;66.85;100362.13;4788344;30;20043;-78
2023/02/09 04:07:41;;;;;;;23.30;11.88;;;;;;;-8.55;66.74;100345.84;4788885;30;20054;-79
2023/02/09 04:10:07;;;;;;;28.02;11.85;;;;;;;-8.43;66.57;100365.88;4788312;30;20043;-80
2023/02/09 04:12:33;;;;;;;25.10;11.35;;;;;;;-8.32;66.21;100364.25;4803047;29;20058;-80
2023/02/09 04:14:59;;;;;;;30.88;12.35;;;;;;;-8.39;65.60;100365.94;4786925;29;20424;-81
2023/02/09 04:17:25;;;;;;;40.10;14.07;;;;;;;-8.42;65.91;100372.84;4784670;30;20047;-80
2023/02/09 04:19:50;;;;;;;30.45;12.50;;;;;;;-8.34;65.94;100381.53;4754890;30;20044;-81
2023/02/09 04:22:16;;;;;;;28.30;12.48;;;;;;;-8.33;65.87;100389.31;4771170;30;20051;-80
2023/02/09 04:24:43;;;;;;;32.17;12.98;;;;;;;-8.26;65.83;100377.31;4785432;30;20101;-79
2023/02/09 04:27:09;;;;;;;29.75;12.20;;;;;;;-8.28;65.82;100366.03;4785117;30;20055;-80
2023/02/09 04:29:35;;;;;;;31.08;11.32;;;;;;;-8.26;65.72;100372.13;4769775;30;20054;-81
2023/02/09 04:32:00;;;;;;;25.23;11.40;;;;;;;-8.29;65.86;100374.69;4784270;29;20052;-80
2023/02/09 04:34:26;;;;;;;21.58;10.50;;;;;;;-8.35;65.91;100367.72;4771073;30;20055;-80
2023/02/09 04:36:52;;;;;;;26.80;11.68;;;;;;;-8.43;65.91;100371.06;4770835;30;20059;-82
2023/02/09 04:39:18;;;;;;;28.08;12.20;;;;;;;-8.51;66.22;100372.69;4754739;30;20054;-83
2023/02/09 04:41:44;;;;;;;20.15;10.52;;;;;;;-8.59;66.44;100370.88;4754854;30;20043;-80
2023/02/09 04:44:10;;;;;;;26.50;11.65;;;;;;;-8.54;66.75;100370.06;4769644;30;20054;-82
2023/02/09 04:46:36;;;;;;;30.83;12.20;;;;;;;-8.53;66.48;100369.22;4784416;30;20421;-80
2023/02/09 04:49:02;;;;;;;29.42;14.98;;;;;;;-8.51;66.58;100367.50;4769565;30;20047;-81
2023/02/09 04:51:28;;;;;;;31.88;13.40;;;;;;;-8.57;66.67;100369.19;4769667;30;20132;-82
2023/02/09 04:53:53;;;;;;;26.15;11.90;;;;;;;-8.73;67.17;100369.78;4769208;30;20051;-80
2023/02/09 04:56:19;;;;;;;13.85;8.27;;;;;;;-8.72;67.82;100373.28;4783935;30;20050;-80
2023/02/09 05:01:29;;;;;;;32.67;14.43;;;;;;;-8.36;67.53;100341.75;4786950;30;20074;-81
2023/02/09 05:03:55;;;;;;;28.17;12.80;;;;;;;-8.15;67.30;100352.38;4787124;30;20051;-79
2023/02/09 05:06:21;;;;;;;33.55;13.48;;;;;;;-7.95;66.93;100343.94;4788533;30;20461;-78
2023/02/09 05:08:47;;;;;;;23.23;10.80;;;;;;;-7.96;66.68;100352.59;4788687;29;20043;-78
2023/02/09 05:11:18;;;;;;;22.30;9.65;;;;;;;-8.01;66.52;100362.94;4786837;30;20078;-78
2023/02/09 05:13:44;;;;;;;25.05;10.63;;;;;;;-8.15;66.84;100372.25;4802230;29;20389;-80
2023/02/09 05:16:14;;;;;;;23.98;10.27;;;;;;;-8.23;67.33;100360.94;4788203;29;20089;-80
2023/02/09 05:18:39;;;;;;;21.23;9.60;;;;;;;-8.12;67.38;100380.09;4772070;30;20055;-80
2023/02/09 05:21:05;;;;;;;28.58;12.15;;;;;;;-8.17;67.74;100398.16;4773712;30;20047;-81
2023/02/09 05:23:31;;;;;;;26.20;12.20;;;;;;;-8.21;67.63;100383.41;4802135;29;20055;-82
2023/02/09 05:25:57;;;;;;;20.27;9.35;;;;;;;-8.30;68.20;100383.31;4788191;29;20047;-80
2023/02/09 05:28:24;;;;;;;20.77;9.90;;;;;;;-8.12;68.19;100380.09;4787933;29;20055;-81
2023/02/09 05:30:52;;;;;;;14.35;8.38;;;;;;;-8.06;68.29;100386.19;4788194;30;20058;-83
2023/02/09 05:33:22;;;;;;;31.30;11.95;;;;;;;-8.08;68.63;100389.66;4788262;29;20051;-81
2023/02/09 05:35:49;;;;;;;30.33;12.73;;;;;;;-8.06;68.60;100390.53;4787271;30;20096;-83
2023/02/09 05:38:16;;;;;;;21.63;11.23;;;;;;;-7.94;68.51;100384.59;4771989;30;20047;-81
2023/02/09 05:40:42;;;;;;;25.85;12.25;;;;;;;-7.83;68.59;100401.16;4786526;30;20089;-82
2023/02/09 05:43:08;;;;;;;31.48;13.27;;;;;;;-7.64;68.34;100397.03;4801886;29;20129;-81
2023/02/09 05:45:37;;;;;;;24.13;10.20;;;;;;;-7.80;68.66;100380.44;4786574;30;20051;-81
2023/02/09 05:48:03;;;;;;;20.35;9.75;;;;;;;-7.74;68.67;100410.78;4777176;30;20107;-81
2023/02/09 05:50:30;;;;;;;19.83;8.40;;;;;;;-7.74;68.85;100390.91;4792803;30;20059;-81
2023/02/09 05:52:58;;;;;;;14.25;7.20;;;;;;;-7.74;68.88;100413.41;4777717;30;20043;-81
2023/02/09 05:55:25;;;;;;;25.80;10.55;;;;;;;-7.64;69.05;100413.47;4778769;30;20050;-82
2023/02/09 05:57:51;;;;;;;20.75;11.32;;;;;;;-7.65;68.87;100410.88;4809072;29;20058;-82
2023/02/09 06:00:29;;;;;;;22.58;9.98;;;;;;;-7.36;68.26;100412.03;4797994;30;20047;-80
2023/02/09 06:02:56;;;;;;;23.08;11.52;;;;;;;-7.14;68.21;100410.53;4799734;29;20051;-83
2023/02/09 06:05:21;;;;;;;25.42;10.85;;;;;;;-6.99;67.30;100429.72;4795280;30;20240;-82
2023/02/09 06:07:56;;;;;;;25.85;13.07;;;;;;;-6.83;67.37;100436.75;4793744;30;20085;-81
2023/02/09 06:10:22;;;;;;;28.13;12.43;;;;;;;-6.62;66.85;100436.94;4793446;30;20055;-82
2023/02/09 06:12:51;;;;;;;23.85;10.50;;;;;;;-6.48;66.19;100428.31;4794190;29;20469;-83
2023/02/09 06:15:17;;;;;;;25.95;12.93;;;;;;;-6.42;66.43;100423.19;4792645;30;20070;-81
2023/02/09 06:17:43;;;;;;;20.67;9.48;;;;;;;-6.35;65.95;100424.94;4792308;30;20468;-81
2023/02/09 06:20:10;;;;;;;29.17;12.90;;;;;;;-6.19;65.51;100411.16;4777727;30;20047;-81
2023/02/09 06:22:35;;;;;;;24.95;11.48;;;;;;;-6.19;65.85;100420.69;4792369;29;20039;-81
2023/02/09 06:25:03;;;;;;;27.80;13.35;;;;;;;-6.03;65.29;100424.22;4792403;30;20119;-80
2023/02/09 06:27:29;;;;;;;30.67;11.85;;;;;;;-5.88;64.99;100422.53;4777510;30;20051;-81
2023/02/09 06:29:55;;;;;;;26.77;13.13;;;;;;;-5.76;64.98;100429.50;4792498;30;20070;-81
2023/02/09 06:32:20;;;;;;;18.27;10.40;;;;;;;-5.77;64.34;100430.38;4777134;30;20058;-81
2023/02/09 06:34:46;;;;;;;25.30;10.68;;;;;;;-5.59;64.21;100444.34;4792307;30;20050;-79
2023/02/09 06:37:12;;;;;;;21.35;10.10;;;;;;;-5.55;63.97;100430.47;4792278;30;20058;-79
2023/02/09 06:39:38;;;;;;;20.52;10.27;;;;;;;-5.41;64.12;100439.19;4791952;30;20490;-81
2023/02/09 06:42:03;;;;;;;28.67;13.35;;;;;;;-5.41;63.23;100439.19;4793107;29;20515;-81
2023/02/09 06:44:32;;;;;;;22.85;11.02;;;;;;;-5.13;63.00;100446.16;4791973;30;20047;-82
2023/02/09 06:46:58;;;;;;;32.58;13.68;;;;;;;-4.91;63.46;100452.28;4793205;29;20514;-81
2023/02/09 06:49:25;;;;;;;24.90;13.15;;;;;;;-4.77;61.95;100448.81;4793670;29;20051;-83
2023/02/09 06:51:51;;;;;;;27.02;13.52;;;;;;;-4.59;62.33;100450.50;4807128;29;20054;-82
2023/02/09 06:54:16;;;;;;;29.35;12.75;;;;;;;-4.72;61.02;100436.63;4791846;30;20046;-81
2023/02/09 06:56:42;;;;;;;28.10;13.27;;;;;;;-4.60;61.53;100444.44;4792940;29;20089;-81
2023/02/09 06:59:08;;;;;;;22.48;11.80;;;;;;;-4.51;61.05;100446.19;4790411;29;20526;-80
2023/02/09 07:01:34;;;;;;;32.80;14.32;;;;;;;-4.34;61.02;100444.41;4789858;30;20058;-80
2023/02/09 07:04:00;;;;;;;31.85;13.07;;;;;;;-4.38;60.54;100441.81;4789241;30;20081;-81
2023/02/09 07:06:25;;;;;;;28.25;14.27;;;;;;;-4.17;60.65;100452.22;4790158;30;20058;-82
2023/02/09 07:08:51;;;;;;;30.08;12.52;;;;;;;-3.98;59.93;100445.19;4789179;30;20077;-82
2023/02/09 07:11:20;;;;;;;26.33;13.35;;;;;;;-4.07;59.86;100448.69;4804368;29;20055;-81
2023/02/09 07:13:46;;;;;;;28.97;12.57;;;;;;;-4.16;59.97;100462.63;4788928;30;20415;-80
2023/02/09 07:16:12;;;;;;;26.83;13.30;;;;;;;-4.19;59.86;100470.47;4788669;30;20062;-82
2023/02/09 07:18:38;;;;;;;24.35;12.98;;;;;;;-4.15;60.09;100477.41;4803961;29;20054;-81
2023/02/09 07:21:10;;;;;;;28.83;13.73;;;;;;;-3.96;60.08;100493.06;4790009;29;20054;-81
2023/02/09 07:23:37;;;;;;;25.20;12.30;;;;;;;-3.87;59.40;100485.22;4789205;30;20082;-81
2023/02/09 07:26:12;;;;;;;26.50;12.77;;;;;;;-3.83;59.29;100489.53;4773951;30;20189;-81
2023/02/09 07:28:38;;;;;;;28.98;14.95;;;;;;;-4.13;59.34;100495.72;4788814;30;20438;-83
2023/02/09 07:31:07;;;;;;;32.17;13.77;;;;;;;-4.20;59.66;100509.66;4788821;29;20134;-82
2023/02/09 07:33:34;;;;;;;32.67;14.75;;;;;;;-4.24;60.13;100507.91;4790130;29;20462;-82
2023/02/09 07:36:05;;;;;;;31.17;14.32;;;;;;;-3.98;60.27;100495.69;4803782;29;20055;-81
2023/02/09 07:38:31;;;;;;;23.63;12.13;;;;;;;-3.69;59.59;100503.41;4803745;29;20487;-82
2023/02/09 07:40:59;;;;;;;22.85;12.35;;;;;;;-4.03;58.83;100507.00;4788393;30;20115;-81
2023/02/09 07:43:25;;;;;;;25.00;11.93;;;;;;;-4.07;59.47;100505.25;4788220;29;20498;-81
2023/02/09 07:45:51;;;;;;;27.33;14.00;;;;;;;-3.81;59.57;100500.84;4803436;29;20051;-82
2023/02/09 07:48:17;;;;;;;29.17;13.48;;;;;;;-3.62;59.16;100496.41;4788271;30;20054;-81
2023/02/09 07:50:49;;;;;;;30.05;14.02;;;;;;;-3.52;58.79;100505.09;4788064;30;20504;-81
2023/02/09 07:53:15;;;;;;;31.00;14.52;;;;;;;-3.54;58.43;100496.38;4758381;30;20047;-83
2023/02/09 07:55:41;;;;;;;29.42;14.32;;;;;;;-3.36;58.52;100491.06;4788110;30;20423;-82
2023/02/09 07:58:07;;;;;;;28.83;12.77;;;;;;;-3.30;57.43;100482.34;4789468;29;20043;-82
2023/02/09 08:00:33;;;;;;;32.22;14.55;;;;;;;-3.52;57.74;100484.19;4758575;30;20054;-83
2023/02/09 08:02:59;;;;;;;22.80;10.45;;;;;;;-3.35;57.92;100474.50;4787801;30;20465;-81
2023/02/09 08:05:32;;;;;;;26.45;13.25;;;;;;;-3.42;58.10;100473.69;4789140;30;20047;-84
2023/02/09 08:07:58;;;;;;;27.52;13.60;;;;;;;-3.29;57.64;100477.09;4803436;29;20151;-81
2023/02/09 08:10:24;;;;;;;28.90;13.88;;;;;;;-3.12;57.80;100478.75;4787598;29;20074;-82
2023/02/09 08:13:01;;;;;;;26.13;13.50;;;;;;;-3.13;57.57;100483.09;4788108;30;20054;-83
2023/02/09 08:15:44;;;;;;;25.05;13.00;;;;;;;-2.82;57.38;100483.78;4772766;30;20067;-82
2023/02/09 08:18:20;;;;;;;26.17;12.65;;;;;;;-2.89;56.82;100487.31;4787879;30;20090;-81
2023/02/09 08:20:48;;;;;;;29.65;13.48;;;;;;;-2.92;57.31;100487.34;4787646;29;20554;-81
2023/02/09 08:23:27;;;;;;;27.00;13.25;;;;;;;-2.79;57.67;100504.69;4773362;30;20411;-90
2023/02/09 08:25:54;;;;;;;35.90;12.43;;;;;;;-3.07;57.26;100524.94;4758321;30;20578;-80
2023/02/09 08:28:21;;;;;;;33.85;14.30;;;;;;;-3.51;57.98;100517.28;4789012;30;20054;-86
2023/02/09 08:30:48;;;;;;;24.23;11.43;;;;;;;-3.60;57.89;100517.34;4773019;30;20065;-80
2023/02/09 08:33:15;;;;;;;29.05;13.98;;;;;;;-3.49;57.96;100511.19;4788771;29;20057;-77
2023/02/09 08:35:41;;;;;;;23.83;11.48;;;;;;;-3.35;58.46;100510.25;4787723;29;20058;-80
2023/02/09 08:38:08;;;;;;;31.80;14.57;;;;;;;-3.32;57.96;100524.16;4772497;30;20638;-81
2023/02/09 08:40:40;;;;;;;38.13;13.90;;;;;;;-3.31;58.30;100505.03;4787099;30;20051;-84
2023/02/09 08:43:07;;;;;;;30.40;13.57;;;;;;;-3.17;57.61;100505.78;4788515;29;20078;-81
2023/02/09 08:45:35;;;;;;;24.17;12.75;;;;;;;-3.02;58.19;100522.28;4788769;29;20146;-81
2023/02/09 08:48:02;;;;;;;28.73;13.77;;;;;;;-3.14;57.79;100523.22;4787383;30;20047;-80
2023/02/09 08:50:27;;;;;;;30.08;14.15;;;;;;;-3.09;57.65;100525.81;4802322;29;20112;-82
2023/02/09 08:52:55;;;;;;;28.08;13.35;;;;;;;-3.10;57.72;100529.31;4787163;30;20047;-82
2023/02/09 08:55:21;;;;;;;28.33;13.57;;;;;;;-2.90;57.99;100522.19;4788394;29;20089;-83
2023/02/09 08:57:56;;;;;;;26.58;13.25;;;;;;;-3.05;57.91;100528.38;4788112;30;20508;-82
2023/02/09 09:00:22;;;;;;;26.75;14.05;;;;;;;-2.97;58.31;100515.25;4802326;29;20047;-80
2023/02/09 09:02:48;;;;;;;32.63;13.02;;;;;;;-2.80;57.34;100529.13;4787013;30;20055;-80
2023/02/09 09:05:14;;;;;;;28.73;12.52;;;;;;;-3.06;57.39;100541.47;4788058;29;20153;-82
2023/02/09 09:07:40;;;;;;;26.35;13.32;;;;;;;-3.26;57.79;100550.31;4785997;30;20051;-83
2023/02/09 09:10:09;;;;;;;23.63;12.85;;;;;;;-3.53;58.58;100540.84;4787260;30;20538;-83
2023/02/09 09:12:36;;;;;;;41.38;13.75;;;;;;;-3.51;59.22;100543.44;4771599;30;20051;-84
2023/02/09 09:15:03;;;;;;;29.17;14.27;;;;;;;-3.53;59.22;100545.19;4788063;29;20492;-84
2023/02/09 09:17:30;;;;;;;28.52;14.45;;;;;;;-3.47;59.86;100539.94;4786938;30;20047;-80
2023/02/09 09:19:57;;;;;;;18.30;9.65;;;;;;;-3.24;59.20;100540.69;4787417;29;20480;-83
2023/02/09 09:22:23;;;;;;;26.42;12.63;;;;;;;-3.51;59.21;100527.75;4786803;30;20054;-84
2023/02/09 09:24:48;;;;;;;26.48;13.50;;;;;;;-3.30;60.01;100543.34;4786635;30;20047;-81
2023/02/09 09:27:15;;;;;;;27.65;12.60;;;;;;;-3.01;59.20;100540.59;4789522;29;20074;-82
2023/02/09 09:29:40;;;;;;;24.95;13.07;;;;;;;-3.00;58.61;100546.69;4789960;29;20047;-81
2023/02/09 09:32:09;;;;;;;23.83;11.52;;;;;;;-2.99;59.35;100541.44;4787229;29;20051;-83
2023/02/09 09:34:35;;;;;;;24.30;12.65;;;;;;;-2.92;58.52;100550.13;4786679;30;20095;-82
2023/02/09 09:37:01;;;;;;;27.70;14.35;;;;;;;-2.89;58.49;100547.50;4785933;30;20043;-81
2023/02/09 09:39:27;;;;;;;30.42;12.95;;;;;;;-2.74;57.93;100543.91;4787685;30;20051;-80
2023/02/09 09:41:59;;;;;;;24.70;13.90;;;;;;;-2.98;57.89;100555.38;4771243;30;20059;-81
2023/02/09 09:44:36;;;;;;;24.35;11.00;;;;;;;-3.38;59.03;100555.59;4801308;29;20069;-78
2023/02/09 09:47:10;;;;;;;29.42;13.75;;;;;;;-3.39;59.36;100559.06;4786135;30;20047;-79
2023/02/09 09:49:36;;;;;;;20.23;10.57;;;;;;;-3.30;59.22;100538.13;4785951;30;20922;-83
2023/02/09 09:52:18;;;;;;;30.77;13.18;;;;;;;-3.24;59.23;100542.44;4770470;30;20197;-81
2023/02/09 09:54:44;;;;;;;27.40;13.15;;;;;;;-3.14;59.61;100540.66;4798865;29;20119;-82
2023/02/09 09:57:24;;;;;;;25.52;14.48;;;;;;;-3.08;59.08;100530.19;4786117;29;20039;-78
2023/02/09 09:59:52;;;;;;;27.20;14.05;;;;;;;-3.23;58.36;100534.59;4761517;30;20039;-81
2023/02/09 10:02:22;;;;;;;25.10;11.20;;;;;;;-3.24;58.49;100527.63;4769917;30;20036;-83
2023/02/09 10:04:48;;;;;;;31.10;15.48;;;;;;;-3.27;59.50;100517.19;4777368;30;20052;-84
2023/02/09 10:07:20;;;;;;;28.02;14.98;;;;;;;-2.94;59.42;100525.72;4784633;29;20100;-83
2023/02/09 10:10:09;;;;;;;33.50;14.68;;;;;;;-2.56;58.68;100527.19;4785887;30;20058;-82
2023/02/09 10:12:38;;;;;;;30.73;15.38;;;;;;;-2.57;57.83;100535.94;4764238;30;20145;-83
2023/02/09 10:15:34;;;;;;;28.20;14.65;;;;;;;-2.47;57.38;100528.00;4771218;30;20051;-83
2023/02/09 10:18:00;;;;;;;30.88;13.88;;;;;;;-2.46;57.02;100536.72;4786082;30;20047;-81
2023/02/09 10:21:00;;;;;;;31.95;14.98;;;;;;;-2.55;57.35;100537.69;4771121;30;20059;-83
2023/02/09 10:23:36;;;;;;;28.85;15.00;;;;;;;-2.61;57.53;100536.84;4785623;30;20043;-82
2023/02/09 10:26:07;;;;;;;36.65;16.35;;;;;;;-2.67;58.16;100540.38;4785911;30;20047;-80
2023/02/09 10:28:42;;;;;;;28.83;13.90;;;;;;;-2.55;58.01;100537.69;4771221;30;20059;-81
2023/02/09 10:31:16;;;;;;;31.23;14.07;;;;;;;-2.34;57.45;100546.22;4756103;29;20079;-82
2023/02/09 10:33:44;;;;;;;27.45;14.57;;;;;;;-2.33;57.18;100541.00;4758084;30;20159;-80
2023/02/09 10:36:27;;;;;;;36.03;14.63;;;;;;;-2.43;57.08;100539.31;4773886;30;20059;-82
2023/02/09 10:39:21;;;;;;;27.85;14.18;;;;;;;-2.46;57.16;100541.97;4759603;30;20112;-83
2023/02/09 10:41:50;;;;;;;27.70;13.70;;;;;;;-2.54;57.49;100542.03;4789631;30;20504;-83
2023/02/09 10:44:26;;;;;;;27.33;14.27;;;;;;;-2.63;57.36;100535.97;4789715;29;20055;-83
2023/02/09 10:47:22;;;;;;;28.42;14.75;;;;;;;-2.57;57.48;100542.03;4803437;29;20492;-82
2023/02/09 10:49:53;;;;;;;29.52;13.02;;;;;;;-2.83;57.63;100550.06;4768178;30;20067;-81
2023/02/09 10:52:24;;;;;;;29.98;14.60;;;;;;;-2.88;58.53;100550.97;4770993;30;20134;-85
2023/02/09 10:55:00;;;;;;;25.25;13.77;;;;;;;-2.81;58.75;100542.22;4772856;30;20502;-86
2023/02/09 10:57:34;;;;;;;32.60;14.38;;;;;;;-2.80;57.85;100544.81;4741837;30;20386;-86
2023/02/09 11:00:22;;;;;;;33.97;15.65;;;;;;;-2.96;58.76;100532.72;4756456;30;20463;-81
2023/02/09 11:02:51;;;;;;;21.38;12.15;;;;;;;-3.09;58.30;100544.13;4752945;30;20127;-80
2023/02/09 11:05:20;;;;;;;26.70;13.88;;;;;;;-3.10;59.16;100547.63;4778393;30;20070;-83
2023/02/09 11:08:02;;;;;;;30.48;15.20;;;;;;;-3.04;59.07;100555.44;4774119;30;20465;-85
2023/02/09 11:10:30;;;;;;;29.55;15.00;;;;;;;-3.01;58.80;100561.53;4793058;30;20466;-82
2023/02/09 11:12:58;;;;;;;31.60;14.80;;;;;;;-3.01;58.80;100555.41;4794387;30;20062;-81
2023/02/09 11:15:37;;;;;;;29.75;14.38;;;;;;;-2.89;58.72;100570.19;4790235;29;20051;-80
2023/02/09 11:18:17;;;;;;;28.38;13.40;;;;;;;-2.99;59.09;100574.59;4771758;30;20047;-84
2023/02/09 11:20:54;;;;;;;29.10;15.18;;;;;;;-3.26;59.39;100579.06;4770284;30;20112;-80
2023/02/09 11:23:34;;;;;;;26.42;14.50;;;;;;;-3.44;60.04;100576.50;4775039;29;20054;-82
2023/02/09 11:26:30;;;;;;;29.33;13.90;;;;;;;-3.53;61.12;100572.19;4774742;30;20050;-84
2023/02/09 11:29:25;;;;;;;33.47;15.98;;;;;;;-3.38;60.82;100575.66;4774065;30;20047;-84
2023/02/09 11:32:09;;;;;;;33.30;14.25;;;;;;;-3.27;60.36;100568.59;4771132;29;20147;-82
2023/02/09 11:34:55;;;;;;;28.50;14.15;;;;;;;-3.38;60.66;100571.28;4760883;30;20055;-82